Aviation Digital Data Service (ADDS)

Output produced by METARs form (0951 UTC 23 April 2017)
found at http://www.aviationweather.gov/adds/metars/
 
LJLJ 230930Z 12006KT 9999 BKN014 OVC040 06/03 Q1021 NOSIG
TAF LJLJ 230800Z 2309/2409 12005KT 9999 BKN025 OVC050 
     PROB40 
     TEMPO 2309/2321 -RA 
     TEMPO 2310/2315 SCT033 SCT080 BKN200 
     TEMPO 2315/2409 SCT033 BKN050
       
LJMB 230930Z VRB03KT 9999 SCT030 BKN060 10/01 Q1021
TAF LJMB 230800Z 2309/2409 19005KT 9999 BKN025 BKN070 
     PROB40 
     TEMPO 2309/2321 -RA BKN035 BKN080 
     BECMG 2309/2312 FEW030 BKN055
       
LJPZ 230930Z 27006KT CAVOK 17/03 Q1018
TAF LJPZ 230800Z 2309/2318 30005KT CAVOK 
     BECMG 2312/2315 26005KT 
     BECMG 2316/2318 12005KT